Historyczne dane pomiarowe

Dodano dane terminowe – wersja testowa.

Dane z okresu 1951-2019

Wersja bazy: 1.34 [2019-03-16, lista zmian], aktualizacja planowana na 2019-04-15

Dane meteo z obszaru Polski uzyskane na podstawie danych udostępnionych przez Instytut Meteorologii i Gospodarki Wodnej – Państwowy Instytut Badawczy.

 

Wybierz Datę:    

       

TemperaturaWilgotnośćWiatrCiśnienieOpadyŚniegCzas trwania zjawisk
 Stacja t tx tn tng RH VA  wxwx mslp ppp RRR   cm mm wxwxwxwxwxwxwx
1961-08-14 14.7 19.6 8.7- 71.0- 1.7 0.0---- 0.0------------
1961-08-13 13.3 21.4 11.7- 96.5- 6.7 0.7---- 8.6------------
1961-08-12 19.7 24.5 15.7- 88.3- 4.7 0.0---- 13.9------------
1961-08-11 26.4 33.7 22.3- 64.8- 2.7 6.0---- 2.6------------
1961-08-10 24.1 29.8 19.0- 77.0- 2.7 4.7---- 0.0------------
1961-08-09 24.0 29.5 15.5- 67.8- 1.0 0.7---- 1.4------------
1961-08-08 21.2 29.7 16.0- 72.3- 3.3 2.0---- 0.0------------
1961-08-07 24.2 29.6 18.5- 58.0- 0.3 3.3---- 0.0------------
1961-08-06 23.3 28.3 16.6- 56.5- 0.0 3.3---- 0.0------------
1961-08-05 19.2 23.1 13.7- 67.0- 6.0 2.7---- 0.0------------
1961-08-04 16.7 20.9 12.7- 66.3- 3.0 0.7---- 0.0------------
1961-08-03 18.2 25.0 12.6- 77.3- 3.0 0.7---- 0.4------------
1961-08-02 19.2 26.3 11.5- 66.0- 1.0 0.7---- 0.0------------
1961-08-01 17.1 21.3 11.1- 72.8- 4.7 4.0---- 0.0------------
1961-07-31 13.6 18.3 10.9- 84.8- 4.7 4.7---- 2.0------------
1961-07-30 12.7 17.2 10.9- 93.3- 7.0 2.7---- 11.1------------
1961-07-29 14.2 20.3 12.1- 95.0- 7.7 4.7---- 33.0------------
1961-07-28 21.5 27.9 16.0- 72.3- 4.0 2.7---- 0.6------------
1961-07-27 21.2 26.3 14.3- 57.8- 3.3 5.3---- 0.0------------
1961-07-26 16.4 21.1 11.0- 68.0- 5.3 1.3---- 0.0------------
1961-07-25 14.0 18.0 10.1- 70.3- 4.3 2.7---- 0.0------------
1961-07-24 14.5 19.1 12.0- 76.5- 5.7 2.7---- 0.0------------
1961-07-23 16.9 19.8 10.9- 69.3- 3.3 0.0---- 0.0------------
1961-07-22 14.4 17.6 12.3- 79.8- 4.0 4.3---- 0.0------------
1961-07-21 15.2 20.1 11.8- 84.8- 3.3 4.7---- 4.0------------
1961-07-20 15.6 19.4 10.5- 84.3- 6.3 1.3---- 22.6------------
1961-07-19 16.1 21.0 9.3- 70.0- 3.0 0.7---- 2.1------------
1961-07-18 15.2 20.1 10.2- 69.8- 3.0 2.7---- 0.0------------
1961-07-17 16.2 22.8 13.6- 84.3- 5.3 0.7---- 1.1------------
1961-07-16 18.0 24.5 12.6- 68.5- 4.7 3.3---- 0.7------------
1961-07-15 20.0 24.8 11.7- 54.3- 4.3 4.0---- 0.0------------
1961-07-14 14.7 19.6 12.6- 80.8- 4.3 4.7---- 1.0------------
1961-07-13 21.5 28.8 16.5- 65.3- 4.0 8.7---- 2.1------------
1961-07-12 20.3 27.3 11.9- 61.5- 3.3 0.7---- 0.0------------
1961-07-11 16.1 20.5 8.6- 60.3- 4.7 4.0---- 0.0------------
1961-07-10 13.7 20.0 11.1- 84.3- 4.7 7.3---- 3.9------------
1961-07-09 15.9 24.1 10.6- 73.0- 3.7 4.7---- 2.1------------
1961-07-08 16.2 20.6 10.1- 60.0- 2.7 0.7---- 0.0------------
1961-07-07 14.4 18.6 7.5- 68.3- 4.0 4.0---- 0.0------------
1961-07-06 13.2 17.7 8.9- 72.8- 2.7 3.3---- 0.0------------
1961-07-05 14.5 20.1 12.2- 82.5- 7.7 3.3---- 1.2------------
1961-07-04 22.9 30.8 16.6- 67.3- 2.3 1.3---- 6.3------------
1961-07-03 24.2 29.8 13.9- 43.8- 0.3 0.0---- 0.0------------
1961-07-02 21.8 27.9 10.9- 53.8- 0.0 0.0---- 0.0------------
1961-07-01 20.6 26.3 12.6- 60.8- 1.3 0.7---- 0.0------------
1961-06-30 17.5 22.5 12.0- 68.8- 4.7 1.3---- 0.0------------
1961-06-29 15.0 19.4 7.3- 72.8- 5.3 2.0---- 0.0------------
1961-06-28 14.8 24.8 13.0- 95.0- 7.0 6.7---- 7.3------------
1961-06-27 25.6 30.6 15.1- 68.5- 0.7 2.0---- 2.8------------
1961-06-26 22.1 29.9 16.6- 62.3- 3.7 2.0---- 0.0------------
1961-06-25 22.2 27.8 13.6- 56.5- 1.0 1.3---- 0.0------------
1961-06-24 18.2 24.4 12.7- 67.3- 3.0 2.7---- 0.0------------
1961-06-23 17.5 22.5 13.7- 77.5- 6.3 4.7---- 6.7------------
1961-06-22 17.2 22.6 10.1- 72.8- 2.0 4.0---- 0.0------------
1961-06-21 18.7 22.9 12.3- 52.5- 0.7 1.3---- 0.0------------
1961-06-20 15.5 20.2 12.5- 79.8- 2.7 2.0---- 0.0------------
1961-06-19 21.1 27.5 14.7- 92.5- 3.0 2.7---- 0.5------------
1961-06-18 20.0 24.9 10.1- 80.3- 0.0 0.0---- 0.0------------
1961-06-17 16.4 21.2 8.6- 88.0- 1.7 2.0---- 0.0------------
1961-06-16 14.6 19.0 9.1- 92.3- 1.3 2.7---- 0.0------------
2218.7 ms

 

Źródłem pochodzenia danych jest Instytut Meteorologii i Gospodarki Wodnej – Państwowy Instytut Badawczy. Dane Instytutu Meteorologii i Gospodarki Wodnej – Państwowego Instytutu Badawczego zostały przetworzone.

Dane źródłowe można odnaleźć na stronie https://dane.imgw.pl